createdAt,value
2018-07-25T00:01:57.711Z,99.90
2018-07-25T00:04:33.835Z,99.90
2018-07-25T00:07:04.432Z,99.90
2018-07-25T00:09:34.847Z,99.90
2018-07-25T00:12:07.731Z,99.90
2018-07-25T00:14:38.745Z,99.90
2018-07-25T00:20:10.480Z,99.90
2018-07-25T00:22:40.922Z,99.90
2018-07-25T00:25:11.373Z,99.90
2018-07-25T00:27:42.747Z,99.90
2018-07-25T00:30:13.932Z,99.90
2018-07-25T00:32:45.021Z,99.90
2018-07-25T00:35:15.700Z,99.90
2018-07-25T00:37:46.678Z,99.90
2018-07-25T00:40:17.020Z,99.90
2018-07-25T00:42:47.813Z,99.90
2018-07-25T00:45:18.181Z,99.90
2018-07-25T00:47:48.698Z,99.90
2018-07-25T00:50:19.349Z,99.90
2018-07-25T00:52:49.655Z,99.90
2018-07-25T00:55:20.275Z,99.90
2018-07-25T00:57:50.868Z,99.90
2018-07-25T01:00:21.577Z,99.90
2018-07-25T01:02:52.096Z,99.90
2018-07-25T01:05:22.888Z,99.90
2018-07-25T01:07:53.319Z,99.90
2018-07-25T01:10:24.152Z,99.90
2018-07-25T01:12:54.713Z,99.90
2018-07-25T01:15:25.088Z,99.90
2018-07-25T01:17:55.608Z,99.90
2018-07-25T01:20:26.554Z,99.90
2018-07-25T01:22:57.085Z,99.90
2018-07-25T01:25:27.702Z,99.90
2018-07-25T01:27:58.351Z,99.90
2018-07-25T01:30:29.048Z,99.90
2018-07-25T01:32:59.740Z,99.90
2018-07-25T01:35:30.279Z,99.90
2018-07-25T01:38:03.000Z,99.90
2018-07-25T01:40:33.462Z,99.90
2018-07-25T01:43:04.132Z,99.90
2018-07-25T01:45:34.663Z,99.90
2018-07-25T01:48:05.731Z,99.90
2018-07-25T01:50:36.910Z,99.90
2018-07-25T01:53:08.104Z,99.90
2018-07-25T01:55:39.143Z,99.90
2018-07-25T01:58:11.336Z,99.90
2018-07-25T02:00:42.380Z,99.90
2018-07-25T02:03:13.332Z,99.90
2018-07-25T02:05:44.107Z,99.90
2018-07-25T02:08:15.473Z,99.90
2018-07-25T02:10:47.098Z,99.90
2018-07-25T02:13:18.183Z,99.90
2018-07-25T02:15:49.842Z,99.90
2018-07-25T02:18:20.232Z,99.90
2018-07-25T02:21:02.656Z,99.90
2018-07-25T02:23:33.167Z,99.90
2018-07-25T02:26:03.509Z,99.90
2018-07-25T02:28:33.997Z,99.90
2018-07-25T02:31:04.737Z,99.90
2018-07-25T02:33:40.096Z,99.90
2018-07-25T02:36:10.711Z,99.90
2018-07-25T02:38:41.258Z,99.90
2018-07-25T02:41:11.830Z,99.90
2018-07-25T02:43:42.267Z,99.90
2018-07-25T02:46:12.863Z,99.90
2018-07-25T02:48:43.197Z,99.90
2018-07-25T02:51:13.888Z,99.90
2018-07-25T02:53:44.504Z,99.90
2018-07-25T02:56:15.387Z,99.90
2018-07-25T02:58:46.199Z,99.90
2018-07-25T03:01:17.944Z,99.90
2018-07-25T03:03:48.674Z,99.90
2018-07-25T03:06:19.373Z,99.90
2018-07-25T03:11:58.867Z,99.90
2018-07-25T03:14:29.834Z,99.90
2018-07-25T03:17:00.911Z,99.90
2018-07-25T03:19:31.415Z,99.90
2018-07-25T03:25:04.436Z,99.90
2018-07-25T03:27:35.100Z,99.90
2018-07-25T03:30:05.574Z,99.90
2018-07-25T03:32:36.180Z,99.90
2018-07-25T03:35:06.531Z,99.90
2018-07-25T03:37:37.136Z,99.90
2018-07-25T03:40:07.981Z,99.90
2018-07-25T03:42:38.306Z,99.90
2018-07-25T03:45:09.185Z,99.90
2018-07-25T03:47:39.843Z,99.90
2018-07-25T03:50:10.476Z,99.90
2018-07-25T03:52:41.319Z,99.90
2018-07-25T03:55:11.811Z,99.90
2018-07-25T03:57:42.611Z,99.90
2018-07-25T04:00:13.528Z,99.90
2018-07-25T04:02:45.167Z,99.90
2018-07-25T04:05:15.903Z,99.90
2018-07-25T04:11:05.289Z,99.90
2018-07-25T04:13:35.861Z,99.90
2018-07-25T04:16:06.447Z,99.90
2018-07-25T04:18:36.971Z,99.90
2018-07-25T04:21:07.214Z,99.90
2018-07-25T04:23:37.617Z,99.90
2018-07-25T04:26:08.276Z,99.90
2018-07-25T04:28:38.679Z,99.90
2018-07-25T04:31:09.231Z,99.90
2018-07-25T04:33:39.725Z,99.90
2018-07-25T04:36:10.107Z,99.90
2018-07-25T04:38:44.668Z,99.90
2018-07-25T04:41:15.135Z,99.90
2018-07-25T04:43:45.882Z,99.90
2018-07-25T04:48:46.413Z,99.90
2018-07-25T04:51:16.943Z,99.90
2018-07-25T04:53:47.407Z,99.90
2018-07-25T04:56:18.019Z,99.90
2018-07-25T04:58:48.563Z,99.90
2018-07-25T05:01:19.071Z,99.90
2018-07-25T05:03:49.792Z,99.90
2018-07-25T05:06:20.126Z,99.90
2018-07-25T05:08:50.644Z,99.90
2018-07-25T05:11:21.324Z,99.90
2018-07-25T05:13:51.835Z,99.90
2018-07-25T05:16:28.500Z,99.90
2018-07-25T05:18:59.179Z,99.90
2018-07-25T05:21:29.700Z,99.90
2018-07-25T05:24:00.315Z,99.90
2018-07-25T05:26:31.504Z,99.90
2018-07-25T05:29:25.237Z,99.90
2018-07-25T05:31:56.939Z,99.90
2018-07-25T05:34:28.201Z,99.90
2018-07-25T05:36:58.676Z,99.90
2018-07-25T05:39:29.109Z,99.90
2018-07-25T05:41:59.797Z,96.70
2018-07-25T05:44:30.254Z,92.40
2018-07-25T05:47:05.616Z,87.40
2018-07-25T05:49:35.946Z,79.10
2018-07-25T05:52:06.486Z,73.00
2018-07-25T05:54:37.103Z,65.60
2018-07-25T05:57:09.619Z,65.80
2018-07-25T05:59:40.292Z,62.90
2018-07-25T06:02:10.763Z,57.90
2018-07-25T06:07:45.500Z,52.70
2018-07-25T06:10:35.227Z,51.00
2018-07-25T06:13:05.679Z,53.30
2018-07-25T06:15:36.143Z,55.40
2018-07-25T06:18:06.716Z,54.10
2018-07-25T06:20:37.485Z,50.30
2018-07-25T06:23:08.266Z,50.50
2018-07-25T06:25:38.723Z,51.60
2018-07-25T06:28:09.235Z,51.30
2018-07-25T06:30:39.743Z,51.40
2018-07-25T06:33:10.210Z,50.80
2018-07-25T06:35:40.813Z,48.50
2018-07-25T06:38:11.396Z,48.60
2018-07-25T06:40:41.871Z,48.40
2018-07-25T06:43:12.555Z,48.30
2018-07-25T06:45:42.942Z,48.40
2018-07-25T06:48:13.334Z,46.60
2018-07-25T06:50:43.806Z,46.00
2018-07-25T06:56:14.202Z,47.20
2018-07-25T06:58:44.706Z,46.00
2018-07-25T07:01:16.309Z,45.00
2018-07-25T07:03:46.935Z,46.20
2018-07-25T07:06:17.408Z,47.20
2018-07-25T07:08:47.918Z,48.20
2018-07-25T07:11:18.389Z,45.60
2018-07-25T07:13:49.017Z,45.00
2018-07-25T07:16:19.575Z,44.40
2018-07-25T07:18:50.120Z,44.40
2018-07-25T07:21:20.488Z,44.50
2018-07-25T07:23:51.080Z,45.80
2018-07-25T07:26:34.691Z,45.40
2018-07-25T07:29:05.464Z,45.10
2018-07-25T07:31:35.706Z,43.80
2018-07-25T07:34:06.031Z,45.80
2018-07-25T07:36:36.501Z,48.50
2018-07-25T07:39:12.085Z,47.00
2018-07-25T07:41:42.868Z,46.10
2018-07-25T07:44:13.616Z,44.80
2018-07-25T07:46:44.212Z,45.00
2018-07-25T07:49:14.544Z,44.50
2018-07-25T07:51:45.080Z,45.00
2018-07-25T07:54:15.515Z,44.20
2018-07-25T07:56:46.034Z,44.60
2018-07-25T07:59:16.206Z,44.50
2018-07-25T08:01:46.904Z,44.40
2018-07-25T08:04:17.353Z,44.80
2018-07-25T08:06:47.641Z,46.30
2018-07-25T08:09:18.200Z,45.20
2018-07-25T08:11:48.606Z,44.50
2018-07-25T08:14:18.985Z,44.40
2018-07-25T08:16:49.568Z,42.20
2018-07-25T08:19:20.067Z,41.90
2018-07-25T08:21:54.051Z,41.80
2018-07-25T08:24:24.483Z,45.00
2018-07-25T08:26:54.892Z,43.80
2018-07-25T08:29:25.262Z,44.10
2018-07-25T08:31:55.546Z,44.00
2018-07-25T08:34:25.932Z,42.30
2018-07-25T08:36:56.451Z,42.20
2018-07-25T08:39:26.832Z,41.00
2018-07-25T08:41:57.431Z,42.20
2018-07-25T08:44:42.143Z,43.60
2018-07-25T08:47:12.788Z,41.10
2018-07-25T08:49:43.468Z,40.50
2018-07-25T08:52:13.644Z,39.50
2018-07-25T08:54:43.720Z,37.90
2018-07-25T08:57:13.924Z,37.70
2018-07-25T08:59:44.420Z,38.00
2018-07-25T09:02:14.762Z,38.80
2018-07-25T09:04:45.898Z,40.00
2018-07-25T09:10:08.479Z,41.20
2018-07-25T09:12:38.820Z,40.50
2018-07-25T09:15:08.990Z,41.90
2018-07-25T09:17:39.359Z,42.20
2018-07-25T09:20:10.478Z,41.00
2018-07-25T09:22:40.687Z,41.10
2018-07-25T09:25:11.103Z,38.40
2018-07-25T09:27:41.594Z,37.90
2018-07-25T09:30:11.817Z,36.40
2018-07-25T09:32:42.238Z,35.20
2018-07-25T09:37:42.638Z,34.60
2018-07-25T09:40:12.904Z,37.50
2018-07-25T09:42:43.416Z,40.30
2018-07-25T09:45:13.697Z,38.10
2018-07-25T09:53:45.139Z,38.40
2018-07-25T09:56:15.338Z,37.80
2018-07-25T09:58:45.793Z,34.10
2018-07-25T10:01:16.203Z,33.80
2018-07-25T10:03:46.469Z,33.50
2018-07-25T10:06:16.945Z,33.40
2018-07-25T10:08:47.329Z,31.80
2018-07-25T10:11:19.914Z,31.10
2018-07-25T10:14:07.780Z,31.50
2018-07-25T10:16:38.239Z,31.10
2018-07-25T10:21:38.949Z,32.40
2018-07-25T10:24:09.357Z,31.10
2018-07-25T10:26:39.695Z,30.20
2018-07-25T10:29:10.238Z,27.80
2018-07-25T10:31:40.712Z,29.30
2018-07-25T10:34:11.031Z,30.70
2018-07-25T10:36:41.563Z,32.30
2018-07-25T10:39:11.961Z,30.60
2018-07-25T10:41:42.444Z,30.90
2018-07-25T10:44:12.886Z,29.50
2018-07-25T10:46:43.676Z,28.80
2018-07-25T10:49:14.103Z,29.40
2018-07-25T10:51:44.694Z,29.20
2018-07-25T10:54:15.241Z,28.30
2018-07-25T10:56:45.939Z,28.70
2018-07-25T10:59:16.793Z,28.40
2018-07-25T11:01:47.809Z,28.50
2018-07-25T11:06:49.496Z,30.00
2018-07-25T11:09:27.614Z,29.10
2018-07-25T11:11:58.246Z,29.50
2018-07-25T11:14:28.712Z,28.70
2018-07-25T11:16:59.278Z,28.70
2018-07-25T11:19:29.559Z,29.20
2018-07-25T11:22:00.100Z,28.90
2018-07-25T11:24:30.660Z,29.40
2018-07-25T11:27:01.312Z,29.00
2018-07-25T11:29:31.675Z,28.70
2018-07-25T11:32:02.067Z,28.50
2018-07-25T11:34:32.442Z,28.40
2018-07-25T11:37:02.966Z,29.10
2018-07-25T11:39:39.002Z,27.10
2018-07-25T11:42:09.559Z,23.90
2018-07-25T11:44:40.005Z,25.40
2018-07-25T11:47:10.336Z,25.60
2018-07-25T11:49:41.059Z,25.50
2018-07-25T11:52:11.470Z,26.40
2018-07-25T11:54:41.857Z,25.70
2018-07-25T11:57:12.299Z,26.40
2018-07-25T11:59:42.795Z,26.10
2018-07-25T12:02:13.283Z,27.50
2018-07-25T12:04:43.825Z,28.10
2018-07-25T12:07:14.441Z,27.00
2018-07-25T12:09:51.175Z,26.10
2018-07-25T12:12:21.697Z,25.70
2018-07-25T12:14:52.179Z,25.60
2018-07-25T12:17:22.570Z,26.70
2018-07-25T12:19:53.141Z,26.30
2018-07-25T12:22:23.462Z,26.70
2018-07-25T12:24:53.646Z,26.70
2018-07-25T12:27:23.930Z,26.10
2018-07-25T12:29:54.590Z,25.90
2018-07-25T12:34:54.659Z,25.70
2018-07-25T12:37:24.892Z,26.50
2018-07-25T12:40:00.844Z,25.70
2018-07-25T12:42:31.420Z,26.10
2018-07-25T12:45:01.791Z,26.00
2018-07-25T12:47:31.966Z,27.20
2018-07-25T12:50:02.328Z,26.60
2018-07-25T12:52:32.578Z,26.90
2018-07-25T12:55:02.871Z,26.80
2018-07-25T12:57:33.222Z,26.80
2018-07-25T13:00:03.701Z,27.30
2018-07-25T13:02:33.999Z,26.70
2018-07-25T13:05:04.392Z,25.70
2018-07-25T13:07:34.593Z,26.20
2018-07-25T13:10:05.202Z,26.20
2018-07-25T13:12:35.426Z,25.40
2018-07-25T13:18:25.151Z,25.00
2018-07-25T13:20:55.517Z,25.60
2018-07-25T13:23:25.790Z,26.30
2018-07-25T13:25:56.455Z,25.20
2018-07-25T13:28:26.739Z,24.80
2018-07-25T13:30:57.038Z,24.40
2018-07-25T13:33:27.367Z,24.40
2018-07-25T13:35:57.936Z,23.90
2018-07-25T13:38:28.485Z,23.60
2018-07-25T13:43:28.840Z,24.20
2018-07-25T13:46:02.679Z,23.80
2018-07-25T13:48:33.063Z,23.50
2018-07-25T13:51:03.338Z,23.40
2018-07-25T13:53:33.643Z,23.00
2018-07-25T13:56:03.899Z,24.70
2018-07-25T13:58:34.516Z,28.00
2018-07-25T14:01:04.964Z,28.90
2018-07-25T14:03:38.965Z,29.20
2018-07-25T14:06:09.315Z,27.80
2018-07-25T14:08:39.847Z,25.80
2018-07-25T14:11:11.579Z,24.40
2018-07-25T14:13:41.929Z,23.70
2018-07-25T14:16:18.350Z,23.70
2018-07-25T14:18:48.634Z,24.90
2018-07-25T14:21:18.912Z,23.70
2018-07-25T14:23:49.273Z,24.00
2018-07-25T14:26:19.597Z,23.80
2018-07-25T14:28:49.861Z,24.40
2018-07-25T14:31:20.075Z,25.80
2018-07-25T14:33:50.352Z,27.60
2018-07-25T14:36:20.735Z,28.70
2018-07-25T14:38:51.121Z,29.90
2018-07-25T14:41:21.407Z,30.70
2018-07-25T14:43:51.601Z,33.20
2018-07-25T14:48:51.574Z,35.20
2018-07-25T14:51:21.964Z,36.10
2018-07-25T14:53:52.202Z,35.70
2018-07-25T14:56:22.479Z,35.00
2018-07-25T14:58:52.767Z,33.10
2018-07-25T15:01:23.295Z,30.70
2018-07-25T15:04:04.547Z,30.20
2018-07-25T15:06:35.011Z,30.00
2018-07-25T15:09:07.821Z,28.30
2018-07-25T15:11:38.220Z,28.00
2018-07-25T15:14:08.606Z,28.00
2018-07-25T15:16:38.997Z,28.50
2018-07-25T15:19:09.220Z,28.70
2018-07-25T15:21:39.618Z,29.30
2018-07-25T15:27:12.754Z,30.20
2018-07-25T15:29:42.962Z,28.40
2018-07-25T15:32:13.150Z,29.10
2018-07-25T15:34:43.446Z,27.40
2018-07-25T15:37:13.623Z,27.30
2018-07-25T15:39:43.907Z,26.60
2018-07-25T15:42:14.095Z,26.70
2018-07-25T15:44:44.254Z,25.50
2018-07-25T15:47:14.508Z,24.70
2018-07-25T15:49:44.754Z,25.50
2018-07-25T15:52:14.972Z,26.10
2018-07-25T15:54:45.370Z,25.40
2018-07-25T15:59:45.845Z,24.60
2018-07-25T16:02:16.134Z,24.60
2018-07-25T16:04:46.343Z,25.90
2018-07-25T16:07:16.759Z,27.60
2018-07-25T16:10:06.117Z,29.80
2018-07-25T16:12:36.223Z,31.40
2018-07-25T16:15:06.843Z,31.80
2018-07-25T16:17:37.492Z,30.40
2018-07-25T16:20:08.083Z,30.40
2018-07-25T16:22:38.479Z,30.70
2018-07-25T16:25:09.065Z,30.60
2018-07-25T16:27:39.487Z,31.80
2018-07-25T16:30:10.232Z,31.20
2018-07-25T16:32:40.742Z,29.00
2018-07-25T16:35:11.118Z,28.30
2018-07-25T16:37:41.767Z,29.20
2018-07-25T16:40:12.227Z,29.00
2018-07-25T16:42:42.717Z,29.10
2018-07-25T16:45:13.008Z,29.10
2018-07-25T16:47:43.868Z,29.50
2018-07-25T16:50:14.218Z,29.20
2018-07-25T16:52:49.098Z,29.20
2018-07-25T16:55:19.318Z,29.80
2018-07-25T16:57:49.416Z,30.60
2018-07-25T17:00:20.109Z,31.00
2018-07-25T17:02:50.467Z,31.50
2018-07-25T17:05:21.067Z,33.00
2018-07-25T17:07:51.437Z,34.40
2018-07-25T17:10:21.730Z,34.50
2018-07-25T17:12:52.125Z,33.90
2018-07-25T17:15:22.333Z,32.30
2018-07-25T17:17:52.722Z,32.70
2018-07-25T17:20:22.980Z,34.00
2018-07-25T17:25:22.996Z,36.40
2018-07-25T17:27:53.430Z,36.40
2018-07-25T17:30:23.953Z,36.60
2018-07-25T17:32:54.350Z,37.00
2018-07-25T17:35:24.925Z,37.30
2018-07-25T17:37:55.356Z,37.80
2018-07-25T17:40:25.852Z,37.90
2018-07-25T17:42:56.935Z,38.20
2018-07-25T17:45:27.339Z,38.90
2018-07-25T17:48:03.185Z,38.80
2018-07-25T17:50:33.740Z,39.60
2018-07-25T17:53:04.675Z,39.70
2018-07-25T17:55:35.500Z,40.50
2018-07-25T17:58:06.749Z,39.90
2018-07-25T18:00:37.737Z,39.70
2018-07-25T18:03:09.207Z,39.90
2018-07-25T18:05:40.199Z,40.00
2018-07-25T18:08:11.216Z,40.30
2018-07-25T18:13:17.235Z,41.50
2018-07-25T18:15:48.292Z,41.20
2018-07-25T18:18:19.171Z,43.10
2018-07-25T18:20:50.212Z,41.40
2018-07-25T18:23:20.919Z,41.80
2018-07-25T18:25:51.915Z,41.70
2018-07-25T18:28:23.372Z,42.80
2018-07-25T18:30:53.972Z,43.50
2018-07-25T18:33:24.704Z,43.00
2018-07-25T18:35:55.310Z,43.60
2018-07-25T18:38:25.789Z,43.70
2018-07-25T18:40:56.297Z,44.30
2018-07-25T18:43:26.814Z,45.40
2018-07-25T18:45:57.275Z,46.40
2018-07-25T18:48:27.728Z,46.40
2018-07-25T18:50:58.244Z,46.60
2018-07-25T18:53:28.675Z,48.10
2018-07-25T18:55:59.110Z,48.00
2018-07-25T18:58:29.585Z,48.10
2018-07-25T19:01:00.053Z,49.10
2018-07-25T19:03:30.914Z,51.10
2018-07-25T19:06:01.371Z,51.20
2018-07-25T19:08:31.735Z,50.40
2018-07-25T19:11:02.207Z,52.10
2018-07-25T19:16:06.371Z,52.70
2018-07-25T19:18:36.756Z,53.40
2018-07-25T19:21:07.220Z,53.00
2018-07-25T19:23:37.829Z,53.60
2018-07-25T19:26:15.112Z,54.60
2018-07-25T19:28:45.565Z,54.30
2018-07-25T19:31:25.587Z,55.20
2018-07-25T19:33:56.199Z,55.80
2018-07-25T19:36:26.726Z,56.40
2018-07-25T19:38:57.416Z,56.60
2018-07-25T19:43:57.793Z,56.50
2018-07-25T19:46:28.307Z,57.10
2018-07-25T19:49:01.028Z,57.90
2018-07-25T19:51:31.436Z,58.10
2018-07-25T19:54:02.052Z,58.90
2018-07-25T19:56:32.711Z,63.30
2018-07-25T19:59:03.230Z,63.30
2018-07-25T20:01:33.870Z,64.70
2018-07-25T20:04:04.346Z,64.80
2018-07-25T20:06:37.418Z,65.80
2018-07-25T20:09:09.394Z,66.40
2018-07-25T20:11:40.122Z,67.70
2018-07-25T20:14:16.177Z,69.00
2018-07-25T20:16:46.768Z,70.70
2018-07-25T20:19:18.540Z,71.80
2018-07-25T20:21:50.448Z,74.00
2018-07-25T20:24:20.930Z,75.10
2018-07-25T20:26:51.303Z,77.10
2018-07-25T20:29:24.065Z,79.90
2018-07-25T20:31:54.945Z,82.40
2018-07-25T20:34:25.421Z,86.80
2018-07-25T20:36:55.711Z,88.20
2018-07-25T20:39:42.638Z,90.00
2018-07-25T20:42:13.137Z,90.40
2018-07-25T20:44:43.712Z,91.70
2018-07-25T20:47:14.352Z,91.80
2018-07-25T20:49:44.980Z,92.20
2018-07-25T20:52:15.476Z,92.80
2018-07-25T20:54:46.009Z,94.70
2018-07-25T20:57:16.855Z,95.90
2018-07-25T20:59:47.246Z,97.90
2018-07-25T21:02:17.702Z,97.50
2018-07-25T21:04:48.387Z,97.50
2018-07-25T21:07:19.043Z,97.30
2018-07-25T21:09:49.588Z,97.70
2018-07-25T21:12:20.029Z,99.20
2018-07-25T21:15:14.664Z,99.60
2018-07-25T21:17:52.775Z,99.90
2018-07-25T21:23:34.612Z,99.90
2018-07-25T21:26:24.032Z,99.90
2018-07-25T21:28:54.630Z,99.90
2018-07-25T21:31:25.163Z,99.90
2018-07-25T21:37:05.877Z,99.90
2018-07-25T21:39:36.431Z,99.90
2018-07-25T21:42:07.080Z,99.90
2018-07-25T21:45:01.104Z,99.90
2018-07-25T21:47:31.591Z,99.90
2018-07-25T21:50:02.066Z,99.90
2018-07-25T21:52:32.788Z,99.90
2018-07-25T21:55:03.258Z,99.90
2018-07-25T21:57:33.864Z,99.90
2018-07-25T22:00:04.676Z,99.90
2018-07-25T22:02:35.349Z,99.90
2018-07-25T22:05:06.316Z,99.90
2018-07-25T22:07:40.255Z,99.90
2018-07-25T22:10:10.995Z,99.90
2018-07-25T22:12:43.229Z,99.90
2018-07-25T22:15:13.703Z,99.90
2018-07-25T22:17:44.793Z,99.90
2018-07-25T22:20:15.634Z,99.90
2018-07-25T22:22:46.315Z,99.90
2018-07-25T22:25:22.510Z,99.90
2018-07-25T22:27:54.525Z,99.90
2018-07-25T22:30:25.603Z,99.90
2018-07-25T22:32:58.276Z,99.90
2018-07-25T22:35:29.589Z,99.90
2018-07-25T22:38:01.681Z,99.90
2018-07-25T22:40:35.298Z,99.90
2018-07-25T22:43:07.928Z,99.90
2018-07-25T22:45:39.338Z,99.90
2018-07-25T22:48:13.234Z,99.90
2018-07-25T22:50:44.455Z,99.90
2018-07-25T22:53:15.616Z,99.90
2018-07-25T22:55:48.270Z,99.90
2018-07-25T22:58:19.534Z,99.90
2018-07-25T23:00:51.024Z,99.90
2018-07-25T23:03:21.496Z,99.90
2018-07-25T23:05:52.225Z,99.90
2018-07-25T23:08:22.779Z,99.90
2018-07-25T23:10:53.299Z,99.90
2018-07-25T23:13:23.873Z,99.90
2018-07-25T23:15:54.418Z,99.90
2018-07-25T23:21:31.119Z,99.90
2018-07-25T23:24:01.589Z,99.90
2018-07-25T23:26:33.187Z,99.90
2018-07-25T23:29:03.780Z,99.90
2018-07-25T23:31:34.309Z,99.90
2018-07-25T23:34:04.980Z,99.90
2018-07-25T23:36:35.675Z,99.90
2018-07-25T23:41:38.696Z,99.90
2018-07-25T23:44:10.330Z,99.90
2018-07-25T23:46:40.928Z,99.90
2018-07-25T23:49:11.399Z,99.90
2018-07-25T23:51:42.273Z,99.90
2018-07-25T23:54:12.757Z,99.90
2018-07-25T23:56:43.198Z,99.90
2018-07-25T23:59:13.851Z,99.90
